sensor_id;sensor_type;location;lat;lon;timestamp;P1;durP1;ratioP1;P2;durP2;ratioP2
13040;SDS011;6587;42.728;23.288;2022-11-24T00:01:24;62.40;;;30.80;;
13040;SDS011;6587;42.728;23.288;2022-11-24T00:03:52;37.43;;;18.60;;
13040;SDS011;6587;42.728;23.288;2022-11-24T00:06:23;60.37;;;29.23;;
13040;SDS011;6587;42.728;23.288;2022-11-24T00:08:50;30.23;;;17.03;;
13040;SDS011;6587;42.728;23.288;2022-11-24T00:11:19;56.63;;;27.50;;
13040;SDS011;6587;42.728;23.288;2022-11-24T00:13:47;39.60;;;21.80;;
13040;SDS011;6587;42.728;23.288;2022-11-24T00:16:15;24.73;;;15.50;;
13040;SDS011;6587;42.728;23.288;2022-11-24T00:18:43;28.57;;;16.33;;
13040;SDS011;6587;42.728;23.288;2022-11-24T00:21:12;33.43;;;18.80;;
13040;SDS011;6587;42.728;23.288;2022-11-24T00:23:41;31.33;;;17.07;;
13040;SDS011;6587;42.728;23.288;2022-11-24T00:26:09;22.63;;;13.77;;
13040;SDS011;6587;42.728;23.288;2022-11-24T00:28:38;23.80;;;12.87;;
13040;SDS011;6587;42.728;23.288;2022-11-24T00:31:12;22.70;;;12.60;;
13040;SDS011;6587;42.728;23.288;2022-11-24T00:33:41;21.40;;;12.83;;
13040;SDS011;6587;42.728;23.288;2022-11-24T00:36:08;21.00;;;12.87;;
13040;SDS011;6587;42.728;23.288;2022-11-24T00:38:35;23.93;;;14.47;;
13040;SDS011;6587;42.728;23.288;2022-11-24T00:41:03;22.23;;;14.07;;
13040;SDS011;6587;42.728;23.288;2022-11-24T00:43:31;30.37;;;14.80;;
13040;SDS011;6587;42.728;23.288;2022-11-24T00:45:58;31.80;;;19.23;;
13040;SDS011;6587;42.728;23.288;2022-11-24T00:48:25;39.80;;;25.17;;
13040;SDS011;6587;42.728;23.288;2022-11-24T00:50:55;35.70;;;23.17;;
13040;SDS011;6587;42.728;23.288;2022-11-24T00:53:23;46.80;;;28.23;;
13040;SDS011;6587;42.728;23.288;2022-11-24T00:55:50;53.77;;;31.93;;
13040;SDS011;6587;42.728;23.288;2022-11-24T00:58:19;64.23;;;40.07;;
13040;SDS011;6587;42.728;23.288;2022-11-24T01:00:46;67.60;;;41.97;;
13040;SDS011;6587;42.728;23.288;2022-11-24T01:03:13;64.47;;;40.77;;
13040;SDS011;6587;42.728;23.288;2022-11-24T01:05:40;55.50;;;33.57;;
13040;SDS011;6587;42.728;23.288;2022-11-24T01:08:07;61.70;;;37.70;;
13040;SDS011;6587;42.728;23.288;2022-11-24T01:10:35;49.07;;;29.87;;
13040;SDS011;6587;42.728;23.288;2022-11-24T01:13:02;50.90;;;29.37;;
13040;SDS011;6587;42.728;23.288;2022-11-24T01:15:33;55.60;;;32.97;;
13040;SDS011;6587;42.728;23.288;2022-11-24T01:18:00;47.60;;;26.93;;
13040;SDS011;6587;42.728;23.288;2022-11-24T01:20:28;43.67;;;25.10;;
13040;SDS011;6587;42.728;23.288;2022-11-24T01:22:55;35.07;;;20.40;;
13040;SDS011;6587;42.728;23.288;2022-11-24T01:25:22;31.97;;;19.30;;
13040;SDS011;6587;42.728;23.288;2022-11-24T01:27:49;30.13;;;18.90;;
13040;SDS011;6587;42.728;23.288;2022-11-24T01:30:16;29.53;;;17.93;;
13040;SDS011;6587;42.728;23.288;2022-11-24T01:32:44;34.30;;;21.50;;
13040;SDS011;6587;42.728;23.288;2022-11-24T01:35:12;34.33;;;21.07;;
13040;SDS011;6587;42.728;23.288;2022-11-24T01:37:39;31.90;;;18.93;;
13040;SDS011;6587;42.728;23.288;2022-11-24T01:40:07;40.90;;;22.23;;
13040;SDS011;6587;42.728;23.288;2022-11-24T01:42:44;37.30;;;21.20;;
13040;SDS011;6587;42.728;23.288;2022-11-24T01:45:27;29.53;;;17.87;;
13040;SDS011;6587;42.728;23.288;2022-11-24T01:47:59;30.07;;;17.53;;
13040;SDS011;6587;42.728;23.288;2022-11-24T01:50:28;32.40;;;18.13;;
13040;SDS011;6587;42.728;23.288;2022-11-24T01:52:55;23.97;;;14.87;;
13040;SDS011;6587;42.728;23.288;2022-11-24T01:55:24;27.37;;;16.23;;
13040;SDS011;6587;42.728;23.288;2022-11-24T01:57:56;31.30;;;17.47;;
13040;SDS011;6587;42.728;23.288;2022-11-24T02:00:29;34.07;;;18.60;;
13040;SDS011;6587;42.728;23.288;2022-11-24T02:02:58;30.03;;;17.70;;
13040;SDS011;6587;42.728;23.288;2022-11-24T02:05:27;31.83;;;17.97;;
13040;SDS011;6587;42.728;23.288;2022-11-24T02:07:59;32.70;;;18.27;;
13040;SDS011;6587;42.728;23.288;2022-11-24T02:10:27;32.67;;;16.47;;
13040;SDS011;6587;42.728;23.288;2022-11-24T02:12:55;30.13;;;17.10;;
13040;SDS011;6587;42.728;23.288;2022-11-24T02:15:24;30.60;;;16.43;;
13040;SDS011;6587;42.728;23.288;2022-11-24T02:17:51;27.00;;;16.00;;
13040;SDS011;6587;42.728;23.288;2022-11-24T02:20:19;29.00;;;14.27;;
13040;SDS011;6587;42.728;23.288;2022-11-24T02:22:49;25.73;;;14.07;;
13040;SDS011;6587;42.728;23.288;2022-11-24T02:25:26;23.47;;;13.50;;
13040;SDS011;6587;42.728;23.288;2022-11-24T02:28:01;20.83;;;12.90;;
13040;SDS011;6587;42.728;23.288;2022-11-24T02:30:33;19.47;;;12.37;;
13040;SDS011;6587;42.728;23.288;2022-11-24T02:33:00;20.43;;;12.27;;
13040;SDS011;6587;42.728;23.288;2022-11-24T02:35:27;27.27;;;14.60;;
13040;SDS011;6587;42.728;23.288;2022-11-24T02:37:56;30.23;;;16.63;;
13040;SDS011;6587;42.728;23.288;2022-11-24T02:40:24;34.57;;;17.70;;
13040;SDS011;6587;42.728;23.288;2022-11-24T02:42:55;25.77;;;15.67;;
13040;SDS011;6587;42.728;23.288;2022-11-24T02:45:25;29.37;;;16.17;;
13040;SDS011;6587;42.728;23.288;2022-11-24T02:47:53;29.00;;;15.80;;
13040;SDS011;6587;42.728;23.288;2022-11-24T02:50:20;30.37;;;15.73;;
13040;SDS011;6587;42.728;23.288;2022-11-24T02:52:46;28.57;;;16.70;;
13040;SDS011;6587;42.728;23.288;2022-11-24T02:55:13;26.27;;;14.87;;
13040;SDS011;6587;42.728;23.288;2022-11-24T02:57:40;24.77;;;14.97;;
13040;SDS011;6587;42.728;23.288;2022-11-24T03:00:08;25.50;;;16.03;;
13040;SDS011;6587;42.728;23.288;2022-11-24T03:02:37;27.23;;;16.07;;
13040;SDS011;6587;42.728;23.288;2022-11-24T03:05:04;28.10;;;15.83;;
13040;SDS011;6587;42.728;23.288;2022-11-24T03:07:32;27.47;;;17.40;;
13040;SDS011;6587;42.728;23.288;2022-11-24T03:09:58;27.53;;;16.63;;
13040;SDS011;6587;42.728;23.288;2022-11-24T03:12:26;29.40;;;17.87;;
13040;SDS011;6587;42.728;23.288;2022-11-24T03:14:52;35.43;;;20.07;;
13040;SDS011;6587;42.728;23.288;2022-11-24T03:17:20;34.53;;;19.20;;
13040;SDS011;6587;42.728;23.288;2022-11-24T03:19:48;29.87;;;18.73;;
13040;SDS011;6587;42.728;23.288;2022-11-24T03:22:15;30.27;;;18.63;;
13040;SDS011;6587;42.728;23.288;2022-11-24T03:24:42;27.50;;;16.23;;
13040;SDS011;6587;42.728;23.288;2022-11-24T03:27:09;23.00;;;14.90;;
13040;SDS011;6587;42.728;23.288;2022-11-24T03:29:37;26.33;;;15.33;;
13040;SDS011;6587;42.728;23.288;2022-11-24T03:32:04;25.10;;;14.53;;
13040;SDS011;6587;42.728;23.288;2022-11-24T03:34:31;25.20;;;15.53;;
13040;SDS011;6587;42.728;23.288;2022-11-24T03:36:59;29.33;;;17.93;;
13040;SDS011;6587;42.728;23.288;2022-11-24T03:39:27;27.77;;;17.33;;
13040;SDS011;6587;42.728;23.288;2022-11-24T03:41:54;32.67;;;16.53;;
13040;SDS011;6587;42.728;23.288;2022-11-24T03:44:21;27.77;;;15.97;;
13040;SDS011;6587;42.728;23.288;2022-11-24T03:46:47;30.17;;;16.13;;
13040;SDS011;6587;42.728;23.288;2022-11-24T03:49:16;30.30;;;15.73;;
13040;SDS011;6587;42.728;23.288;2022-11-24T03:51:43;24.13;;;15.57;;
13040;SDS011;6587;42.728;23.288;2022-11-24T03:54:11;30.00;;;19.17;;
13040;SDS011;6587;42.728;23.288;2022-11-24T03:56:38;30.93;;;20.37;;
13040;SDS011;6587;42.728;23.288;2022-11-24T03:59:05;34.63;;;19.20;;
13040;SDS011;6587;42.728;23.288;2022-11-24T04:01:32;35.53;;;24.43;;
13040;SDS011;6587;42.728;23.288;2022-11-24T04:03:59;30.40;;;20.03;;
13040;SDS011;6587;42.728;23.288;2022-11-24T04:06:26;98.63;;;46.30;;
13040;SDS011;6587;42.728;23.288;2022-11-24T04:08:53;255.20;;;98.90;;
13040;SDS011;6587;42.728;23.288;2022-11-24T04:11:21;67.40;;;33.33;;
13040;SDS011;6587;42.728;23.288;2022-11-24T04:14:06;32.43;;;18.70;;
13040;SDS011;6587;42.728;23.288;2022-11-24T04:16:33;35.23;;;21.23;;
13040;SDS011;6587;42.728;23.288;2022-11-24T04:19:00;51.40;;;26.47;;
13040;SDS011;6587;42.728;23.288;2022-11-24T04:21:27;46.17;;;27.37;;
13040;SDS011;6587;42.728;23.288;2022-11-24T04:23:53;33.77;;;21.43;;
13040;SDS011;6587;42.728;23.288;2022-11-24T04:26:22;26.70;;;16.17;;
13040;SDS011;6587;42.728;23.288;2022-11-24T04:28:49;23.57;;;14.57;;
13040;SDS011;6587;42.728;23.288;2022-11-24T04:31:16;29.43;;;18.57;;
13040;SDS011;6587;42.728;23.288;2022-11-24T04:33:43;21.30;;;13.50;;
13040;SDS011;6587;42.728;23.288;2022-11-24T04:36:10;27.13;;;16.20;;
13040;SDS011;6587;42.728;23.288;2022-11-24T04:38:37;31.10;;;16.50;;
13040;SDS011;6587;42.728;23.288;2022-11-24T04:41:04;33.57;;;16.90;;
13040;SDS011;6587;42.728;23.288;2022-11-24T04:43:32;31.57;;;18.67;;
13040;SDS011;6587;42.728;23.288;2022-11-24T04:46:00;27.90;;;16.80;;
13040;SDS011;6587;42.728;23.288;2022-11-24T04:48:27;28.80;;;17.07;;
13040;SDS011;6587;42.728;23.288;2022-11-24T04:50:54;30.07;;;20.10;;
13040;SDS011;6587;42.728;23.288;2022-11-24T04:53:21;33.17;;;19.63;;
13040;SDS011;6587;42.728;23.288;2022-11-24T04:55:48;32.77;;;20.33;;
13040;SDS011;6587;42.728;23.288;2022-11-24T04:58:15;39.20;;;23.30;;
13040;SDS011;6587;42.728;23.288;2022-11-24T05:00:43;30.00;;;18.30;;
13040;SDS011;6587;42.728;23.288;2022-11-24T05:03:10;31.10;;;20.07;;
13040;SDS011;6587;42.728;23.288;2022-11-24T05:05:37;41.33;;;26.57;;
13040;SDS011;6587;42.728;23.288;2022-11-24T05:08:04;46.13;;;27.10;;
13040;SDS011;6587;42.728;23.288;2022-11-24T05:10:31;67.30;;;35.37;;
13040;SDS011;6587;42.728;23.288;2022-11-24T05:13:01;55.23;;;30.90;;
13040;SDS011;6587;42.728;23.288;2022-11-24T05:15:29;42.67;;;27.27;;
13040;SDS011;6587;42.728;23.288;2022-11-24T05:17:58;41.73;;;26.37;;
13040;SDS011;6587;42.728;23.288;2022-11-24T05:20:25;45.17;;;26.80;;
13040;SDS011;6587;42.728;23.288;2022-11-24T05:22:52;41.37;;;27.20;;
13040;SDS011;6587;42.728;23.288;2022-11-24T05:25:19;43.00;;;25.93;;
13040;SDS011;6587;42.728;23.288;2022-11-24T05:27:46;40.00;;;25.70;;
13040;SDS011;6587;42.728;23.288;2022-11-24T05:30:12;42.63;;;27.07;;
13040;SDS011;6587;42.728;23.288;2022-11-24T05:32:39;45.93;;;26.77;;
13040;SDS011;6587;42.728;23.288;2022-11-24T05:35:08;48.77;;;27.87;;
13040;SDS011;6587;42.728;23.288;2022-11-24T05:37:35;50.83;;;31.67;;
13040;SDS011;6587;42.728;23.288;2022-11-24T05:40:03;84.07;;;39.87;;
13040;SDS011;6587;42.728;23.288;2022-11-24T05:42:31;71.70;;;37.87;;
13040;SDS011;6587;42.728;23.288;2022-11-24T05:45:08;63.27;;;32.03;;
13040;SDS011;6587;42.728;23.288;2022-11-24T05:47:37;38.27;;;24.37;;
13040;SDS011;6587;42.728;23.288;2022-11-24T05:50:05;32.07;;;19.50;;
13040;SDS011;6587;42.728;23.288;2022-11-24T05:52:34;32.23;;;19.63;;
13040;SDS011;6587;42.728;23.288;2022-11-24T05:55:01;32.50;;;18.47;;
13040;SDS011;6587;42.728;23.288;2022-11-24T05:57:28;29.93;;;18.27;;
13040;SDS011;6587;42.728;23.288;2022-11-24T05:59:55;30.17;;;16.63;;
13040;SDS011;6587;42.728;23.288;2022-11-24T06:02:21;28.77;;;16.10;;
13040;SDS011;6587;42.728;23.288;2022-11-24T06:04:48;30.97;;;17.67;;
13040;SDS011;6587;42.728;23.288;2022-11-24T06:07:15;26.37;;;15.97;;
13040;SDS011;6587;42.728;23.288;2022-11-24T06:09:44;25.37;;;15.23;;
13040;SDS011;6587;42.728;23.288;2022-11-24T06:12:11;26.50;;;14.40;;
13040;SDS011;6587;42.728;23.288;2022-11-24T06:14:38;32.90;;;16.10;;
13040;SDS011;6587;42.728;23.288;2022-11-24T06:17:05;28.40;;;14.37;;
13040;SDS011;6587;42.728;23.288;2022-11-24T06:19:33;23.00;;;14.50;;
13040;SDS011;6587;42.728;23.288;2022-11-24T06:21:59;27.00;;;14.20;;
13040;SDS011;6587;42.728;23.288;2022-11-24T06:24:26;27.07;;;15.53;;
13040;SDS011;6587;42.728;23.288;2022-11-24T06:26:55;25.70;;;16.53;;
13040;SDS011;6587;42.728;23.288;2022-11-24T06:29:21;36.53;;;17.50;;
13040;SDS011;6587;42.728;23.288;2022-11-24T06:31:48;34.47;;;16.67;;
13040;SDS011;6587;42.728;23.288;2022-11-24T06:34:16;30.17;;;17.43;;
13040;SDS011;6587;42.728;23.288;2022-11-24T06:36:43;27.40;;;17.03;;
13040;SDS011;6587;42.728;23.288;2022-11-24T06:39:09;29.60;;;17.50;;
13040;SDS011;6587;42.728;23.288;2022-11-24T06:41:36;36.87;;;19.37;;
13040;SDS011;6587;42.728;23.288;2022-11-24T06:44:05;32.20;;;18.73;;
13040;SDS011;6587;42.728;23.288;2022-11-24T06:46:32;34.07;;;19.30;;
13040;SDS011;6587;42.728;23.288;2022-11-24T06:48:59;39.77;;;21.13;;
13040;SDS011;6587;42.728;23.288;2022-11-24T06:51:26;31.03;;;20.00;;
13040;SDS011;6587;42.728;23.288;2022-11-24T06:53:53;36.80;;;21.57;;
13040;SDS011;6587;42.728;23.288;2022-11-24T06:56:20;35.50;;;21.77;;
13040;SDS011;6587;42.728;23.288;2022-11-24T06:58:48;31.00;;;20.33;;
13040;SDS011;6587;42.728;23.288;2022-11-24T07:01:18;32.60;;;19.90;;
13040;SDS011;6587;42.728;23.288;2022-11-24T07:03:46;33.87;;;19.20;;
13040;SDS011;6587;42.728;23.288;2022-11-24T07:06:14;24.43;;;15.37;;
13040;SDS011;6587;42.728;23.288;2022-11-24T07:08:41;21.30;;;11.07;;
13040;SDS011;6587;42.728;23.288;2022-11-24T07:11:09;25.57;;;15.67;;
13040;SDS011;6587;42.728;23.288;2022-11-24T07:13:39;24.60;;;12.50;;
13040;SDS011;6587;42.728;23.288;2022-11-24T07:16:12;20.03;;;11.03;;
13040;SDS011;6587;42.728;23.288;2022-11-24T07:18:41;23.27;;;12.03;;
13040;SDS011;6587;42.728;23.288;2022-11-24T07:21:09;21.87;;;11.20;;
13040;SDS011;6587;42.728;23.288;2022-11-24T07:23:36;17.47;;;12.07;;
13040;SDS011;6587;42.728;23.288;2022-11-24T07:26:03;24.73;;;12.60;;
13040;SDS011;6587;42.728;23.288;2022-11-24T07:28:31;19.37;;;11.13;;
13040;SDS011;6587;42.728;23.288;2022-11-24T07:31:03;22.30;;;13.60;;
13040;SDS011;6587;42.728;23.288;2022-11-24T07:33:30;20.30;;;12.87;;
13040;SDS011;6587;42.728;23.288;2022-11-24T07:35:59;19.27;;;12.73;;
13040;SDS011;6587;42.728;23.288;2022-11-24T07:38:27;16.47;;;11.17;;
13040;SDS011;6587;42.728;23.288;2022-11-24T07:40:57;18.07;;;12.57;;
13040;SDS011;6587;42.728;23.288;2022-11-24T07:43:25;24.23;;;13.10;;
13040;SDS011;6587;42.728;23.288;2022-11-24T07:45:52;19.50;;;12.63;;
13040;SDS011;6587;42.728;23.288;2022-11-24T07:48:19;21.10;;;13.67;;
13040;SDS011;6587;42.728;23.288;2022-11-24T07:50:46;21.17;;;13.03;;
13040;SDS011;6587;42.728;23.288;2022-11-24T07:53:14;24.17;;;15.37;;
13040;SDS011;6587;42.728;23.288;2022-11-24T07:55:41;18.83;;;13.30;;
13040;SDS011;6587;42.728;23.288;2022-11-24T07:58:09;19.67;;;12.33;;
13040;SDS011;6587;42.728;23.288;2022-11-24T08:00:36;22.00;;;12.80;;
13040;SDS011;6587;42.728;23.288;2022-11-24T08:03:03;18.43;;;10.67;;
13040;SDS011;6587;42.728;23.288;2022-11-24T08:05:31;15.80;;;10.73;;
13040;SDS011;6587;42.728;23.288;2022-11-24T08:07:58;16.30;;;10.63;;
13040;SDS011;6587;42.728;23.288;2022-11-24T08:10:27;17.17;;;10.97;;
13040;SDS011;6587;42.728;23.288;2022-11-24T08:12:54;18.87;;;10.80;;
13040;SDS011;6587;42.728;23.288;2022-11-24T08:15:20;14.80;;;9.37;;
13040;SDS011;6587;42.728;23.288;2022-11-24T08:17:47;15.47;;;9.93;;
13040;SDS011;6587;42.728;23.288;2022-11-24T08:20:14;16.17;;;9.80;;
13040;SDS011;6587;42.728;23.288;2022-11-24T08:22:42;14.57;;;9.70;;
13040;SDS011;6587;42.728;23.288;2022-11-24T08:25:09;17.97;;;9.60;;
13040;SDS011;6587;42.728;23.288;2022-11-24T08:27:39;22.63;;;14.03;;
13040;SDS011;6587;42.728;23.288;2022-11-24T08:30:07;12.60;;;8.30;;
13040;SDS011;6587;42.728;23.288;2022-11-24T08:32:35;12.60;;;7.80;;
13040;SDS011;6587;42.728;23.288;2022-11-24T08:35:01;13.53;;;7.93;;
13040;SDS011;6587;42.728;23.288;2022-11-24T08:37:28;8.97;;;6.57;;
13040;SDS011;6587;42.728;23.288;2022-11-24T08:39:55;11.10;;;7.53;;
13040;SDS011;6587;42.728;23.288;2022-11-24T08:42:22;9.27;;;6.67;;
13040;SDS011;6587;42.728;23.288;2022-11-24T08:44:50;12.13;;;6.93;;
13040;SDS011;6587;42.728;23.288;2022-11-24T08:47:17;11.67;;;6.53;;
13040;SDS011;6587;42.728;23.288;2022-11-24T08:49:45;7.90;;;5.50;;
13040;SDS011;6587;42.728;23.288;2022-11-24T08:52:12;6.93;;;4.20;;
13040;SDS011;6587;42.728;23.288;2022-11-24T08:54:39;4.10;;;3.10;;
13040;SDS011;6587;42.728;23.288;2022-11-24T08:57:08;5.87;;;3.17;;
13040;SDS011;6587;42.728;23.288;2022-11-24T08:59:35;4.53;;;3.47;;
13040;SDS011;6587;42.728;23.288;2022-11-24T09:02:03;3.83;;;2.50;;
13040;SDS011;6587;42.728;23.288;2022-11-24T09:04:30;5.80;;;2.90;;
13040;SDS011;6587;42.728;23.288;2022-11-24T09:06:57;4.00;;;2.30;;
13040;SDS011;6587;42.728;23.288;2022-11-24T09:09:24;3.47;;;2.23;;
13040;SDS011;6587;42.728;23.288;2022-11-24T09:11:51;2.33;;;1.90;;
13040;SDS011;6587;42.728;23.288;2022-11-24T09:14:18;2.80;;;2.40;;
13040;SDS011;6587;42.728;23.288;2022-11-24T09:16:45;2.60;;;1.90;;
13040;SDS011;6587;42.728;23.288;2022-11-24T09:19:13;4.20;;;2.00;;
13040;SDS011;6587;42.728;23.288;2022-11-24T09:21:40;4.60;;;2.80;;
13040;SDS011;6587;42.728;23.288;2022-11-24T09:24:07;3.90;;;1.90;;
13040;SDS011;6587;42.728;23.288;2022-11-24T09:26:37;2.80;;;2.20;;
13040;SDS011;6587;42.728;23.288;2022-11-24T09:29:04;5.37;;;3.57;;
13040;SDS011;6587;42.728;23.288;2022-11-24T09:31:33;1.77;;;1.67;;
13040;SDS011;6587;42.728;23.288;2022-11-24T09:34:02;1.77;;;1.67;;
13040;SDS011;6587;42.728;23.288;2022-11-24T09:36:31;2.67;;;2.20;;
13040;SDS011;6587;42.728;23.288;2022-11-24T09:38:58;2.13;;;1.80;;
13040;SDS011;6587;42.728;23.288;2022-11-24T09:41:29;3.97;;;2.07;;
13040;SDS011;6587;42.728;23.288;2022-11-24T09:44:07;6.40;;;2.63;;
13040;SDS011;6587;42.728;23.288;2022-11-24T09:46:46;6.07;;;3.40;;
13040;SDS011;6587;42.728;23.288;2022-11-24T09:49:21;2.40;;;2.20;;
13040;SDS011;6587;42.728;23.288;2022-11-24T09:51:56;4.07;;;2.90;;
13040;SDS011;6587;42.728;23.288;2022-11-24T09:54:27;4.00;;;2.93;;
13040;SDS011;6587;42.728;23.288;2022-11-24T09:56:55;3.47;;;2.27;;
13040;SDS011;6587;42.728;23.288;2022-11-24T09:59:26;3.17;;;1.93;;
13040;SDS011;6587;42.728;23.288;2022-11-24T10:01:53;2.90;;;2.20;;
13040;SDS011;6587;42.728;23.288;2022-11-24T10:04:21;3.67;;;2.80;;
13040;SDS011;6587;42.728;23.288;2022-11-24T10:06:54;5.13;;;2.83;;
13040;SDS011;6587;42.728;23.288;2022-11-24T10:09:44;2.33;;;2.13;;
13040;SDS011;6587;42.728;23.288;2022-11-24T10:12:24;3.90;;;2.83;;
13040;SDS011;6587;42.728;23.288;2022-11-24T10:15:16;3.00;;;2.70;;
13040;SDS011;6587;42.728;23.288;2022-11-24T10:18:02;5.63;;;2.53;;
13040;SDS011;6587;42.728;23.288;2022-11-24T10:20:46;3.30;;;2.90;;
13040;SDS011;6587;42.728;23.288;2022-11-24T10:23:29;4.43;;;3.30;;
13040;SDS011;6587;42.728;23.288;2022-11-24T10:26:07;5.33;;;3.50;;
13040;SDS011;6587;42.728;23.288;2022-11-24T10:28:42;6.70;;;4.40;;
13040;SDS011;6587;42.728;23.288;2022-11-24T10:31:21;3.33;;;2.70;;
13040;SDS011;6587;42.728;23.288;2022-11-24T10:33:49;13.40;;;7.30;;
13040;SDS011;6587;42.728;23.288;2022-11-24T10:36:18;8.10;;;5.70;;
13040;SDS011;6587;42.728;23.288;2022-11-24T10:38:51;4.07;;;3.10;;
13040;SDS011;6587;42.728;23.288;2022-11-24T10:41:26;4.07;;;3.40;;
13040;SDS011;6587;42.728;23.288;2022-11-24T10:44:08;7.50;;;4.67;;
13040;SDS011;6587;42.728;23.288;2022-11-24T10:46:38;10.13;;;6.47;;
13040;SDS011;6587;42.728;23.288;2022-11-24T10:49:06;6.23;;;3.60;;
13040;SDS011;6587;42.728;23.288;2022-11-24T10:51:45;9.03;;;6.03;;
13040;SDS011;6587;42.728;23.288;2022-11-24T10:54:19;4.20;;;3.10;;
13040;SDS011;6587;42.728;23.288;2022-11-24T10:56:49;4.17;;;3.60;;
13040;SDS011;6587;42.728;23.288;2022-11-24T10:59:30;8.80;;;5.27;;
13040;SDS011;6587;42.728;23.288;2022-11-24T11:02:00;14.17;;;8.17;;
13040;SDS011;6587;42.728;23.288;2022-11-24T11:04:28;6.27;;;3.53;;
13040;SDS011;6587;42.728;23.288;2022-11-24T11:07:06;10.27;;;5.37;;
13040;SDS011;6587;42.728;23.288;2022-11-24T11:09:35;7.27;;;4.73;;
13040;SDS011;6587;42.728;23.288;2022-11-24T11:12:09;7.10;;;4.30;;
13040;SDS011;6587;42.728;23.288;2022-11-24T11:14:37;6.60;;;4.50;;
13040;SDS011;6587;42.728;23.288;2022-11-24T11:20:00;7.20;;;5.13;;
13040;SDS011;6587;42.728;23.288;2022-11-24T11:22:30;8.57;;;5.50;;
13040;SDS011;6587;42.728;23.288;2022-11-24T11:25:06;5.30;;;4.03;;
13040;SDS011;6587;42.728;23.288;2022-11-24T11:27:44;8.30;;;5.03;;
13040;SDS011;6587;42.728;23.288;2022-11-24T11:30:16;8.93;;;6.00;;
13040;SDS011;6587;42.728;23.288;2022-11-24T11:32:52;8.23;;;5.00;;
13040;SDS011;6587;42.728;23.288;2022-11-24T11:35:21;8.80;;;5.20;;
13040;SDS011;6587;42.728;23.288;2022-11-24T11:37:50;6.73;;;4.70;;
13040;SDS011;6587;42.728;23.288;2022-11-24T11:40:20;5.37;;;4.73;;
13040;SDS011;6587;42.728;23.288;2022-11-24T11:42:52;8.97;;;4.60;;
13040;SDS011;6587;42.728;23.288;2022-11-24T11:45:25;8.63;;;5.13;;
13040;SDS011;6587;42.728;23.288;2022-11-24T11:47:56;7.67;;;4.97;;
13040;SDS011;6587;42.728;23.288;2022-11-24T11:50:28;8.77;;;5.93;;
13040;SDS011;6587;42.728;23.288;2022-11-24T11:53:08;9.50;;;5.30;;
13040;SDS011;6587;42.728;23.288;2022-11-24T11:55:48;8.47;;;4.40;;
13040;SDS011;6587;42.728;23.288;2022-11-24T11:58:27;7.47;;;3.77;;
13040;SDS011;6587;42.728;23.288;2022-11-24T12:01:24;7.97;;;4.53;;
13040;SDS011;6587;42.728;23.288;2022-11-24T12:04:09;5.20;;;3.63;;
13040;SDS011;6587;42.728;23.288;2022-11-24T12:06:55;6.00;;;4.43;;
13040;SDS011;6587;42.728;23.288;2022-11-24T12:09:34;6.53;;;4.53;;
13040;SDS011;6587;42.728;23.288;2022-11-24T12:12:24;5.93;;;3.40;;
13040;SDS011;6587;42.728;23.288;2022-11-24T12:15:05;5.67;;;3.80;;
13040;SDS011;6587;42.728;23.288;2022-11-24T12:17:41;8.63;;;4.10;;
13040;SDS011;6587;42.728;23.288;2022-11-24T12:20:32;5.37;;;3.57;;
13040;SDS011;6587;42.728;23.288;2022-11-24T12:23:05;6.17;;;4.23;;
13040;SDS011;6587;42.728;23.288;2022-11-24T12:25:43;5.50;;;3.70;;
13040;SDS011;6587;42.728;23.288;2022-11-24T12:28:20;4.57;;;3.30;;
13040;SDS011;6587;42.728;23.288;2022-11-24T12:31:02;5.03;;;3.80;;
13040;SDS011;6587;42.728;23.288;2022-11-24T12:33:49;6.97;;;4.30;;
13040;SDS011;6587;42.728;23.288;2022-11-24T12:36:40;4.50;;;3.20;;
13040;SDS011;6587;42.728;23.288;2022-11-24T12:39:21;6.17;;;3.70;;
13040;SDS011;6587;42.728;23.288;2022-11-24T12:41:58;6.57;;;3.67;;
13040;SDS011;6587;42.728;23.288;2022-11-24T12:44:39;7.23;;;3.90;;
13040;SDS011;6587;42.728;23.288;2022-11-24T12:47:18;5.93;;;3.83;;
13040;SDS011;6587;42.728;23.288;2022-11-24T12:49:55;4.90;;;4.13;;
13040;SDS011;6587;42.728;23.288;2022-11-24T12:52:30;6.30;;;4.70;;
13040;SDS011;6587;42.728;23.288;2022-11-24T12:55:00;5.43;;;4.03;;
13040;SDS011;6587;42.728;23.288;2022-11-24T12:57:29;5.70;;;3.97;;
13040;SDS011;6587;42.728;23.288;2022-11-24T13:00:03;5.97;;;4.27;;
13040;SDS011;6587;42.728;23.288;2022-11-24T13:02:42;6.43;;;4.53;;
13040;SDS011;6587;42.728;23.288;2022-11-24T13:05:21;7.63;;;4.47;;
13040;SDS011;6587;42.728;23.288;2022-11-24T13:07:53;5.40;;;4.60;;
13040;SDS011;6587;42.728;23.288;2022-11-24T13:10:26;4.47;;;3.50;;
13040;SDS011;6587;42.728;23.288;2022-11-24T13:13:03;7.20;;;4.50;;
13040;SDS011;6587;42.728;23.288;2022-11-24T13:18:46;4.03;;;2.93;;
13040;SDS011;6587;42.728;23.288;2022-11-24T13:24:32;5.17;;;3.67;;
13040;SDS011;6587;42.728;23.288;2022-11-24T13:30:14;13.00;;;6.37;;
13040;SDS011;6587;42.728;23.288;2022-11-24T13:33:35;12.73;;;6.23;;
13040;SDS011;6587;42.728;23.288;2022-11-24T13:38:58;13.07;;;8.07;;
13040;SDS011;6587;42.728;23.288;2022-11-24T13:47:28;5.90;;;3.37;;
13040;SDS011;6587;42.728;23.288;2022-11-24T13:49:58;5.80;;;4.17;;
13040;SDS011;6587;42.728;23.288;2022-11-24T13:52:36;3.37;;;3.00;;
13040;SDS011;6587;42.728;23.288;2022-11-24T13:58:16;8.77;;;4.23;;
13040;SDS011;6587;42.728;23.288;2022-11-24T14:01:05;3.57;;;3.23;;
13040;SDS011;6587;42.728;23.288;2022-11-24T14:03:39;9.17;;;6.10;;
13040;SDS011;6587;42.728;23.288;2022-11-24T14:06:16;9.23;;;5.10;;
13040;SDS011;6587;42.728;23.288;2022-11-24T14:08:50;19.97;;;9.27;;
13040;SDS011;6587;42.728;23.288;2022-11-24T14:11:18;4.57;;;4.10;;
13040;SDS011;6587;42.728;23.288;2022-11-24T14:13:45;7.47;;;4.83;;
13040;SDS011;6587;42.728;23.288;2022-11-24T14:16:15;7.63;;;5.67;;
13040;SDS011;6587;42.728;23.288;2022-11-24T14:18:44;12.20;;;6.47;;
13040;SDS011;6587;42.728;23.288;2022-11-24T14:24:02;11.30;;;6.20;;
13040;SDS011;6587;42.728;23.288;2022-11-24T14:26:37;8.03;;;5.30;;
13040;SDS011;6587;42.728;23.288;2022-11-24T14:29:06;6.53;;;4.20;;
13040;SDS011;6587;42.728;23.288;2022-11-24T14:31:39;4.97;;;4.40;;
13040;SDS011;6587;42.728;23.288;2022-11-24T14:34:14;3.70;;;3.13;;
13040;SDS011;6587;42.728;23.288;2022-11-24T14:36:44;4.00;;;2.73;;
13040;SDS011;6587;42.728;23.288;2022-11-24T14:39:12;6.20;;;3.10;;
13040;SDS011;6587;42.728;23.288;2022-11-24T14:41:41;4.40;;;3.83;;
13040;SDS011;6587;42.728;23.288;2022-11-24T14:44:14;3.73;;;3.33;;
13040;SDS011;6587;42.728;23.288;2022-11-24T14:46:44;7.67;;;3.10;;
13040;SDS011;6587;42.728;23.288;2022-11-24T14:49:15;3.97;;;3.03;;
13040;SDS011;6587;42.728;23.288;2022-11-24T14:51:45;3.57;;;3.20;;
13040;SDS011;6587;42.728;23.288;2022-11-24T14:54:19;7.67;;;5.20;;
13040;SDS011;6587;42.728;23.288;2022-11-24T14:56:55;13.30;;;6.37;;
13040;SDS011;6587;42.728;23.288;2022-11-24T14:59:27;12.07;;;7.30;;
13040;SDS011;6587;42.728;23.288;2022-11-24T15:01:55;10.30;;;6.40;;
13040;SDS011;6587;42.728;23.288;2022-11-24T15:04:24;10.07;;;5.87;;
13040;SDS011;6587;42.728;23.288;2022-11-24T15:07:04;15.97;;;10.77;;
13040;SDS011;6587;42.728;23.288;2022-11-24T15:09:42;10.57;;;6.60;;
13040;SDS011;6587;42.728;23.288;2022-11-24T15:12:20;11.93;;;7.27;;
13040;SDS011;6587;42.728;23.288;2022-11-24T15:14:53;9.07;;;6.30;;
13040;SDS011;6587;42.728;23.288;2022-11-24T15:17:24;12.53;;;7.67;;